Charqueada, Brazil
Current Conditions -  °F | °C
As of 7:00 AM on Thursday 18 Dec 2014 (Local Time) from SBKP Reporting Station
Clear Clear  
Wind Chill: 68°   Ceiling: Unl
Heat Index: 68°   Visibility: 6mi
Dew Point: 63°   Wind: 12mph
Humidity: 83%   Direction: 140°SE
Pressure: 29.88"   Gusts: NA
Location:  22.51°S, 47.78°W
Report Text: SBKP 180900Z 14010KT 9000 NSC 20/17 Q1012
Loading
Personal Weather Stations






























Interactive Weather Map New forecast layout! Learn more

10-Day Weather Forecast

Advertisements
Track Severe Weather on mobile